createdAt,value
2022-09-12T00:02:57.601Z,4.18
2022-09-12T00:08:00.243Z,3.47
2022-09-12T00:13:02.009Z,4.20
2022-09-12T00:18:03.921Z,5.00
2022-09-12T00:23:05.719Z,5.97
2022-09-12T00:28:07.472Z,4.57
2022-09-12T00:33:10.019Z,4.75
2022-09-12T00:38:16.326Z,6.45
2022-09-12T00:43:29.996Z,4.80
2022-09-12T00:48:55.962Z,3.75
2022-09-12T00:53:59.492Z,4.68
2022-09-12T00:59:12.208Z,4.68
2022-09-12T01:04:14.300Z,6.35
2022-09-12T01:09:20.434Z,3.35
2022-09-12T01:14:22.026Z,5.70
2022-09-12T01:19:52.432Z,4.32
2022-09-12T01:25:47.044Z,3.10
2022-09-12T01:31:08.861Z,4.07
2022-09-12T01:36:17.139Z,3.67
2022-09-12T01:41:30.522Z,3.67
2022-09-12T01:46:46.954Z,4.18
2022-09-12T01:51:59.105Z,3.92
2022-09-12T01:57:08.715Z,3.05
2022-09-12T02:02:24.161Z,3.20
2022-09-12T02:07:37.969Z,3.22
2022-09-12T02:12:48.864Z,4.20
2022-09-12T02:17:52.328Z,2.92
2022-09-12T02:22:57.417Z,3.10
2022-09-12T02:28:09.589Z,3.88
2022-09-12T02:33:26.760Z,3.80
2022-09-12T02:38:48.702Z,2.97
2022-09-12T02:43:52.691Z,3.28
2022-09-12T02:48:56.116Z,2.88
2022-09-12T02:53:58.128Z,4.75
2022-09-12T02:59:04.870Z,6.70
2022-09-12T03:04:31.309Z,6.30
2022-09-12T03:09:40.206Z,4.63
2022-09-12T03:14:42.041Z,5.90
2022-09-12T03:20:01.198Z,3.58
2022-09-12T03:25:21.961Z,6.45
2022-09-12T03:30:24.499Z,4.70
2022-09-12T03:35:26.661Z,3.50
2022-09-12T03:40:28.218Z,4.10
2022-09-12T03:45:30.402Z,3.63
2022-09-12T03:50:32.449Z,5.35
2022-09-12T03:55:34.263Z,5.63
2022-09-12T04:00:36.117Z,5.68
2022-09-12T04:05:37.984Z,4.13
2022-09-12T04:10:40.135Z,5.07
2022-09-12T04:15:41.989Z,4.45
2022-09-12T04:20:43.553Z,6.30
2022-09-12T04:25:52.960Z,4.97
2022-09-12T04:30:55.882Z,4.40
2022-09-12T04:36:05.204Z,5.22
2022-09-12T04:41:29.008Z,4.85
2022-09-12T04:46:33.333Z,4.55
2022-09-12T04:51:37.501Z,4.82
2022-09-12T04:56:42.174Z,5.05
2022-09-12T05:01:43.973Z,4.47
2022-09-12T05:06:47.444Z,5.38
2022-09-12T05:12:05.619Z,7.40
2022-09-12T05:17:07.972Z,4.55
2022-09-12T05:22:09.970Z,4.35
2022-09-12T05:27:11.885Z,5.03
2022-09-12T05:32:13.746Z,3.70
2022-09-12T05:37:15.540Z,4.50
2022-09-12T05:42:17.331Z,4.78
2022-09-12T05:47:19.201Z,5.85
2022-09-12T05:52:21.001Z,6.18
2022-09-12T05:57:22.862Z,7.72
2022-09-12T06:02:24.739Z,6.63
2022-09-12T06:07:26.648Z,8.38
2022-09-12T06:12:31.028Z,6.35
2022-09-12T06:17:33.069Z,8.32
2022-09-12T06:22:34.710Z,5.90
2022-09-12T06:27:36.472Z,6.95
2022-09-12T06:32:38.247Z,9.63
2022-09-12T06:37:40.695Z,7.95
2022-09-12T06:42:42.357Z,6.05
2022-09-12T06:47:44.130Z,4.65
2022-09-12T06:52:49.474Z,5.47
2022-09-12T06:57:52.274Z,4.20
2022-09-12T07:02:56.546Z,7.38
2022-09-12T07:07:58.612Z,5.50
2022-09-12T07:13:00.413Z,7.30
2022-09-12T07:18:02.812Z,7.63
2022-09-12T07:23:04.619Z,4.80
2022-09-12T07:28:08.014Z,6.18
2022-09-12T07:33:09.681Z,4.88
2022-09-12T07:38:11.456Z,6.55
2022-09-12T07:43:13.253Z,5.40
2022-09-12T07:48:15.092Z,8.27
2022-09-12T07:53:16.885Z,8.10
2022-09-12T07:58:18.480Z,6.45
2022-09-12T08:03:20.510Z,9.05
2022-09-12T08:08:22.311Z,5.95
2022-09-12T08:13:24.541Z,8.05
2022-09-12T08:18:31.002Z,4.95
2022-09-12T08:23:33.533Z,7.90
2022-09-12T08:28:35.934Z,5.35
2022-09-12T08:33:38.173Z,6.78
2022-09-12T08:38:43.753Z,5.38
2022-09-12T08:43:52.054Z,7.60
2022-09-12T08:48:59.207Z,6.00
2022-09-12T08:54:03.061Z,7.68
2022-09-12T08:59:04.678Z,8.18
2022-09-12T09:04:15.556Z,5.63
2022-09-12T09:09:26.372Z,8.02
2022-09-12T09:14:59.013Z,5.93
2022-09-12T09:20:19.218Z,7.82
2022-09-12T09:25:25.269Z,5.80
2022-09-12T09:30:28.696Z,4.10
2022-09-12T09:35:47.536Z,5.25
2022-09-12T09:41:16.257Z,6.32
2022-09-12T09:46:18.501Z,7.25
2022-09-12T09:51:32.853Z,4.45
2022-09-12T09:56:36.530Z,3.35
2022-09-12T10:01:51.983Z,4.82
2022-09-12T10:06:59.087Z,4.30
2022-09-12T10:12:20.564Z,3.55
2022-09-12T10:17:34.302Z,4.15
2022-09-12T10:22:38.369Z,3.45
2022-09-12T10:27:42.146Z,4.88
2022-09-12T10:32:52.241Z,4.47
2022-09-12T10:37:58.560Z,7.22
2022-09-12T10:43:00.818Z,4.13
2022-09-12T10:48:24.480Z,4.15
2022-09-12T10:53:47.898Z,3.05
2022-09-12T10:59:20.105Z,3.97
2022-09-12T11:04:34.602Z,3.83
2022-09-12T11:09:54.716Z,3.53
2022-09-12T11:15:26.495Z,3.25
2022-09-12T11:20:40.954Z,3.42
2022-09-12T11:25:50.386Z,2.38
2022-09-12T11:31:36.526Z,2.75
2022-09-12T11:36:44.303Z,2.50
2022-09-12T11:41:58.030Z,2.92
2022-09-12T11:47:03.919Z,4.35
2022-09-12T11:52:11.839Z,4.97
2022-09-12T11:57:18.437Z,1.92
2022-09-12T12:02:27.713Z,1.73
2022-09-12T12:07:45.171Z,1.67
2022-09-12T12:12:48.632Z,3.60
2022-09-12T12:18:04.825Z,2.17
2022-09-12T12:23:06.737Z,2.10
2022-09-12T12:28:09.122Z,2.45
2022-09-12T12:33:10.968Z,3.65
2022-09-12T12:38:31.205Z,7.43
2022-09-12T12:43:34.612Z,6.07
2022-09-12T12:49:03.321Z,2.83
2022-09-12T12:54:28.205Z,1.90
2022-09-12T12:59:30.817Z,2.55
2022-09-12T13:04:33.926Z,2.92
2022-09-12T13:09:52.585Z,3.65
2022-09-12T13:14:58.386Z,2.13
2022-09-12T13:20:30.111Z,2.85
2022-09-12T13:25:36.726Z,3.67
2022-09-12T13:31:06.101Z,3.42
2022-09-12T13:36:09.917Z,3.03
2022-09-12T13:41:35.782Z,1.77
2022-09-12T13:46:38.155Z,3.28
2022-09-12T13:51:40.566Z,2.08
2022-09-12T13:56:49.962Z,4.05
2022-09-12T14:01:52.203Z,2.47
2022-09-12T14:06:54.388Z,2.50
2022-09-12T14:11:57.756Z,3.25
2022-09-12T14:17:00.548Z,1.67
2022-09-12T14:22:02.537Z,2.05
2022-09-12T14:27:05.013Z,3.65
2022-09-12T14:32:23.191Z,2.08
2022-09-12T14:37:25.313Z,1.98
2022-09-12T14:42:31.138Z,2.10
2022-09-12T14:47:42.455Z,2.22
2022-09-12T14:52:44.409Z,1.80
2022-09-12T14:57:47.900Z,2.75
2022-09-12T15:02:52.069Z,1.23
2022-09-12T15:08:15.912Z,1.38
2022-09-12T15:13:20.629Z,2.17
2022-09-12T15:18:25.836Z,1.60
2022-09-12T15:23:43.007Z,1.35
2022-09-12T15:28:45.394Z,5.10
2022-09-12T15:33:47.319Z,1.33
2022-09-12T15:38:50.726Z,1.90
2022-09-12T15:43:52.599Z,1.92
2022-09-12T15:48:54.189Z,1.15
2022-09-12T15:53:56.015Z,4.13
2022-09-12T15:58:59.664Z,2.88
2022-09-12T16:04:03.363Z,4.43
2022-09-12T16:09:05.769Z,3.95
2022-09-12T16:14:07.971Z,5.15
2022-09-12T16:19:11.090Z,2.47
2022-09-12T16:24:12.858Z,3.30
2022-09-12T16:29:14.721Z,1.77
2022-09-12T16:34:16.522Z,2.70
2022-09-12T16:39:18.488Z,1.95
2022-09-12T16:44:20.056Z,2.70
2022-09-12T16:49:21.895Z,1.85
2022-09-12T16:54:23.878Z,2.05
2022-09-12T16:59:25.636Z,2.20
2022-09-12T17:04:28.804Z,4.18
2022-09-12T17:09:30.457Z,2.83
2022-09-12T17:14:32.305Z,2.42
2022-09-12T17:19:33.991Z,5.22
2022-09-12T17:24:35.822Z,2.17
2022-09-12T17:29:38.691Z,3.58
2022-09-12T17:34:40.852Z,4.07
2022-09-12T17:39:42.794Z,3.70
2022-09-12T17:44:44.569Z,3.45
2022-09-12T17:49:47.591Z,3.45
2022-09-12T17:54:49.521Z,6.28
2022-09-12T17:59:51.609Z,3.67
2022-09-12T18:04:53.374Z,5.05
2022-09-12T18:09:55.349Z,5.22
2022-09-12T18:14:56.994Z,6.13
2022-09-12T18:19:58.688Z,4.20
2022-09-12T18:25:00.588Z,4.65
2022-09-12T18:30:20.619Z,7.45
2022-09-12T18:35:23.130Z,3.67
2022-09-12T18:40:25.864Z,4.10
2022-09-12T18:45:27.554Z,3.58
2022-09-12T18:50:29.382Z,3.15
2022-09-12T18:55:32.069Z,2.60
2022-09-12T19:00:33.854Z,2.20
2022-09-12T19:05:35.709Z,3.00
2022-09-12T19:10:37.526Z,2.88
2022-09-12T19:15:40.236Z,2.20
2022-09-12T19:20:42.049Z,2.65
2022-09-12T19:25:45.461Z,3.03
2022-09-12T19:30:47.761Z,2.85
2022-09-12T19:35:50.292Z,2.83
2022-09-12T19:40:57.022Z,3.55
2022-09-12T19:46:00.243Z,2.20
2022-09-12T19:51:04.664Z,3.33
2022-09-12T19:56:08.729Z,3.08
2022-09-12T20:01:13.526Z,2.78
2022-09-12T20:06:17.792Z,3.88
2022-09-12T20:11:21.662Z,3.35
2022-09-12T20:16:25.797Z,4.32
2022-09-12T20:21:34.202Z,3.60
2022-09-12T20:26:36.382Z,4.50
2022-09-12T20:31:40.709Z,4.38
2022-09-12T20:36:42.861Z,2.33
2022-09-12T20:41:45.002Z,3.80
2022-09-12T20:46:46.903Z,2.70
2022-09-12T20:51:48.961Z,2.92
2022-09-12T20:56:50.773Z,2.42
2022-09-12T21:01:52.409Z,2.95
2022-09-12T21:06:54.361Z,1.90
2022-09-12T21:11:56.057Z,3.30
2022-09-12T21:16:57.725Z,3.38
2022-09-12T21:21:59.360Z,2.35
2022-09-12T21:27:04.168Z,3.65
2022-09-12T21:32:09.943Z,3.08
2022-09-12T21:37:14.182Z,2.95
2022-09-12T21:42:16.052Z,2.58
2022-09-12T21:47:18.046Z,2.72
2022-09-12T21:52:19.924Z,2.35
2022-09-12T21:57:22.465Z,2.97
2022-09-12T22:02:27.481Z,2.75
2022-09-12T22:07:29.642Z,3.58
2022-09-12T22:12:31.388Z,2.65
2022-09-12T22:17:33.229Z,2.08
2022-09-12T22:22:54.818Z,2.75
2022-09-12T22:27:56.610Z,2.53
2022-09-12T22:32:58.439Z,2.67
2022-09-12T22:38:00.131Z,2.85
2022-09-12T22:43:02.612Z,3.05
2022-09-12T22:48:08.590Z,4.47
2022-09-12T22:53:11.286Z,2.25
2022-09-12T22:58:13.081Z,2.35
2022-09-12T23:03:15.057Z,3.55
2022-09-12T23:08:17.781Z,3.90
2022-09-12T23:13:19.573Z,3.72
2022-09-12T23:18:21.144Z,3.15
2022-09-12T23:23:22.814Z,3.78
2022-09-12T23:28:24.597Z,3.03
2022-09-12T23:33:30.679Z,2.58
2022-09-12T23:38:34.125Z,2.85
2022-09-12T23:43:35.837Z,3.95
2022-09-12T23:48:37.757Z,4.05
2022-09-12T23:53:41.310Z,6.68
2022-09-12T23:58:43.209Z,3.05
